CST,Max TemperatureF,Mean TemperatureF,Min TemperatureF,Max Dew PointF,MeanDew PointF,Min DewpointF,Max Humidity, Mean Humidity, Min Humidity, Max Sea Level PressureIn, Mean Sea Level PressureIn, Min Sea Level PressureIn, Max VisibilityMiles, Mean VisibilityMiles, Min VisibilityMiles, Max Wind SpeedMPH, Mean Wind SpeedMPH, Max Gust SpeedMPH,PrecipitationIn, CloudCover, Events, WindDirDegrees
2012-11-1,73,58,44,55,48,42,93,73,44,30.10,30.02,29.97,,,,5,1,,0.00,0,,279
2012-11-2,82,67,52,61,56,48,86,66,41,30.00,29.97,29.94,,,,9,3,,0.00,0,Rain,250
2012-11-3,82,72,61,65,61,57,94,74,50,30.09,30.03,29.97,,,,14,8,23,0.52,2,Rain-Thunderstorm,245
2012-11-4,62,54,45,57,49,43,94,83,53,30.20,30.13,30.09,,,,9,5,16,0.14,4,Rain-Thunderstorm,32
2012-11-5,59,52,44,54,49,41,100,89,67,30.11,30.02,29.96,,,,6,1,,0.15,6,Rain-Thunderstorm,111
2012-11-6,60,53,46,48,46,43,100,83,55,30.12,30.06,30.01,,,,7,2,,0.00,6,,306
2012-11-7,64,52,41,43,39,33,93,66,31,30.18,30.10,30.05,,,,10,5,21,0.00,0,,313
2012-11-8,63,49,35,43,38,32,93,68,41,30.29,30.20,30.16,10,10,10,8,2,,0.00,0,,149
2012-11-9,71,58,44,49,44,40,86,62,36,30.22,30.15,30.10,10,10,10,10,5,,0.00,0,,169
2012-11-10,73,62,51,56,54,49,96,71,52,30.20,30.12,30.05,10,10,7,13,7,20,0.00,0,,167
2012-11-11,75,64,53,64,59,50,94,87,57,30.14,30.03,29.96,10,8,2,21,9,30,0.27,7,Rain,190
2012-11-12,53,44,33,52,39,27,94,75,38,30.48,30.35,30.14,10,10,10,10,4,21,0.06,4,Rain-Thunderstorm,326
2012-11-13,55,44,32,33,30,27,92,65,34,30.54,30.46,30.39,10,10,7,10,3,,0.00,0,,27
2012-11-14,55,46,35,34,31,28,85,62,34,30.43,30.37,30.33,10,10,10,10,2,17,0.00,0,,9
2012-11-15,57,44,30,40,35,28,92,75,47,30.38,30.33,30.28,10,10,8,10,2,,0.00,0,,25
2012-11-16,60,47,34,36,33,30,96,64,33,30.42,30.37,30.34,10,10,8,10,3,,0.00,0,,29
2012-11-17,64,50,35,39,35,32,89,67,31,30.45,30.39,30.34,10,10,3,7,1,,0.00,0,,49
2012-11-18,66,50,35,40,36,33,93,68,30,30.38,30.34,30.29,10,9,4,6,1,,0.00,0,,95
2012-11-19,69,53,37,47,41,34,89,67,36,30.33,30.26,30.19,10,10,10,6,1,,0.00,1,,193
2012-11-20,73,63,52,51,48,42,89,65,39,30.22,30.16,30.11,10,10,7,7,2,,0.00,3,,274
2012-11-21,70,58,46,50,47,44,93,71,44,30.28,30.21,30.16,10,10,7,10,4,,0.00,0,,12
2012-11-22,71,56,42,49,45,40,92,63,35,30.24,30.17,30.12,10,9,4,10,3,,0.00,0,,182
2012-11-23,64,54,43,56,42,27,96,62,31,30.36,30.26,30.15,10,9,4,9,6,17,0.09,4,Rain,304
2012-11-24,51,42,33,28,25,19,75,55,29,30.40,30.31,30.19,10,10,10,9,3,18,0.00,0,,24
2012-11-25,64,47,30,34,29,24,82,51,29,30.18,30.09,30.01,10,10,10,10,4,16,0.00,0,,182
2012-11-26,64,54,44,58,48,34,90,76,61,30.18,30.04,29.98,10,10,10,13,2,23,0.00,7,,113
2012-11-27,52,42,33,41,34,29,89,70,49,30.40,30.31,30.20,10,10,10,13,8,26,0.00,3,,20
2012-11-28,59,44,30,35,31,27,92,69,29,30.51,30.42,30.36,10,10,7,5,1,,0.00,0,,110
2012-11-29,63,48,34,35,32,28,85,57,27,30.38,30.30,30.24,10,10,10,8,3,,0.00,0,,158
2012-11-30,68,52,37,51,44,33,86,72,52,30.27,30.22,30.16,10,10,10,7,3,,0.00,1,,154